Time;durP1;ratioP1;P1;durP2;ratioP2;P2;SDS_P1;SDS_P2;PMS_P1;PMS_P2;Temp;Humidity;BMP_temperature;BMP_pressure;BME280_temperature;BME280_humidity;BME280_pressure;Samples;Min_cycle;Max_cycle;Signal;HPM_P1;HPM_P2
2022/01/15 00:01:16;;;;;;;;;;;-2.00;99.90;;;;;;4962076;29;20023;-80
2022/01/15 00:03:41;;;;;;;277.05;69.80;;;-2.00;99.90;;;;;;4936799;28;1166195;-79
2022/01/15 00:06:07;;;;;;;;;;;-2.00;99.90;;;;;;4946158;29;20031;-79
2022/01/15 00:08:32;;;;;;;446.05;67.43;;;-2.00;99.90;;;;;;4962184;29;19906;-79
2022/01/15 00:10:58;;;;;;;;;;;-1.90;99.90;;;;;;4971039;29;20027;-80
2022/01/15 00:13:27;;;;;;;385.77;72.05;;;-2.10;99.90;;;;;;4983037;28;20014;-80
2022/01/15 00:16:56;;;;;;;388.10;72.95;;;-2.10;99.90;;;;;;4955531;29;20036;-79
2022/01/15 00:19:03;;;;;;;878.88;98.25;;;-2.10;99.90;;;;;;4947176;29;20054;-79
2022/01/15 00:21:29;;;;;;;672.20;92.20;;;-2.00;99.90;;;;;;4938959;29;20031;-79
2022/01/15 00:23:55;;;;;;;;;;;-2.10;99.90;;;;;;4955103;29;20039;-78
2022/01/15 00:26:20;;;;;;;500.17;71.90;;;-2.20;99.90;;;;;;4971097;28;19907;-79
2022/01/15 00:28:46;;;;;;;;;;;-2.10;99.90;;;;;;4954849;29;20044;-80
2022/01/15 00:31:12;;;;;;;316.92;69.25;;;-2.10;99.90;;;;;;4956789;29;20354;-79
2022/01/15 00:33:37;;;;;;;;;;;-2.20;99.90;;;;;;4955563;29;20550;-79
2022/01/15 00:36:03;;;;;;;528.55;81.70;;;-2.10;99.90;;;;;;4938901;29;20648;-80
2022/01/15 00:38:29;;;;;;;332.85;73.68;;;-2.20;99.90;;;;;;4955904;29;20054;-79
2022/01/15 00:40:55;;;;;;;;;;;-2.20;99.90;;;;;;4971356;28;20066;-78
2022/01/15 00:43:20;;;;;;;455.48;66.25;;;-2.20;99.90;;;;;;4957001;29;19913;-79
2022/01/15 00:45:46;;;;;;;;;;;-2.20;99.90;;;;;;4953821;29;20023;-80
2022/01/15 00:48:12;;;;;;;283.05;60.85;;;-2.20;99.90;;;;;;4969630;28;19906;-77
2022/01/15 00:50:38;;;;;;;;;;;-2.20;99.90;;;;;;4954133;29;20047;-79
2022/01/15 00:53:04;;;;;;;215.13;55.47;;;-2.30;99.90;;;;;;4968139;28;20351;-79
2022/01/15 00:55:29;;;;;;;;;;;-2.30;99.90;;;;;;4954125;29;20019;-78
2022/01/15 00:57:55;;;;;;;198.27;59.55;;;-2.30;99.90;;;;;;4968830;28;20303;-80
2022/01/15 01:00:22;;;;;;;;;;;-2.40;99.90;;;;;;4957719;29;20034;-80
2022/01/15 01:02:48;;;;;;;;;;;-2.40;99.90;;;;;;4960740;28;19911;-79
2022/01/15 01:05:15;;;;;;;218.82;66.47;;;-2.40;99.90;;;;;;4976391;28;20296;-80
2022/01/15 01:07:41;;;;;;;281.90;68.88;;;-2.50;99.90;;;;;;4965966;29;20038;-80
2022/01/15 01:23:21;;;;;;;179.98;57.47;;;-3.00;99.90;;;;;;4955033;29;20073;-79
2022/01/15 01:25:51;;;;;;;;;;;-3.10;99.90;;;;;;4938787;29;20111;-80
2022/01/15 01:28:27;;;;;;;159.30;53.42;;;-3.10;99.90;;;;;;4957703;28;19930;-79
2022/01/15 01:31:02;;;;;;;162.48;54.50;;;-3.20;99.90;;;;;;4955857;29;20031;-79
2022/01/15 01:33:35;;;;;;;161.73;53.35;;;-3.20;99.90;;;;;;4940136;29;20034;-79
2022/01/15 01:36:21;;;;;;;145.98;50.30;;;-3.30;99.90;;;;;;4955594;29;20043;-80
2022/01/15 01:38:56;;;;;;;147.60;50.75;;;-3.30;99.90;;;;;;4953290;29;20033;-80
2022/01/15 01:41:23;;;;;;;129.30;46.95;;;-3.40;99.90;;;;;;4953452;29;20043;-80
2022/01/15 01:43:55;;;;;;;122.82;44.35;;;-3.50;99.90;;;;;;4955697;29;20019;-80
2022/01/15 01:48:52;;;;;;;120.03;45.38;;;-3.70;99.90;;;;;;4952523;28;20062;-79
2022/01/15 01:51:24;;;;;;;149.20;51.33;;;-3.80;99.90;;;;;;4954749;29;20037;-79
2022/01/15 01:53:51;;;;;;;140.13;51.00;;;-3.90;99.90;;;;;;4951284;29;20035;-79
2022/01/15 01:56:17;;;;;;;121.63;44.28;;;-3.80;99.90;;;;;;4951421;29;20035;-78
2022/01/15 01:58:43;;;;;;;97.72;38.42;;;-3.80;99.90;;;;;;4932671;29;20031;-78
2022/01/15 02:01:09;;;;;;;97.10;38.67;;;-3.90;99.90;;;;;;4949620;29;20035;-79
2022/01/15 02:03:35;;;;;;;;;;;-4.00;99.90;;;;;;4933514;29;20051;-78
2022/01/15 02:06:00;;;;;;;118.88;41.88;;;-4.00;99.90;;;;;;4932870;29;19933;-78
2022/01/15 02:08:26;;;;;;;74.15;28.15;;;-4.00;99.90;;;;;;4950659;29;20540;-78
2022/01/15 02:10:52;;;;;;;76.57;27.77;;;-4.00;99.90;;;;;;4966150;28;20054;-80
2022/01/15 02:13:18;;;;;;;73.22;29.45;;;-3.90;99.90;;;;;;4964725;28;20051;-79
2022/01/15 02:15:44;;;;;;;90.32;34.13;;;-3.90;99.90;;;;;;4955263;29;20110;-80
2022/01/15 02:18:11;;;;;;;87.28;33.78;;;-3.80;99.90;;;;;;4955019;29;20080;-79
2022/01/15 02:21:01;;;;;;;73.03;31.13;;;-3.90;99.90;;;;;;4954289;29;20027;-78
2022/01/15 02:23:33;;;;;;;82.03;32.15;;;-3.90;99.90;;;;;;4956110;29;20086;-79
2022/01/15 02:26:02;;;;;;;101.53;36.00;;;-3.80;99.90;;;;;;4954536;29;20122;-79
2022/01/15 02:28:30;;;;;;;101.57;35.22;;;-3.60;99.90;;;;;;4955058;29;20035;-79
2022/01/15 02:31:02;;;;;;;91.90;36.03;;;-3.60;99.90;;;;;;4939967;29;20098;-78
2022/01/15 02:33:28;;;;;;;92.72;31.55;;;-3.60;99.90;;;;;;4956331;29;20027;-79
2022/01/15 02:35:54;;;;;;;73.35;30.48;;;-3.50;99.90;;;;;;4955269;28;20028;-79
2022/01/15 02:38:20;;;;;;;81.40;31.20;;;-3.50;99.90;;;;;;4942639;29;20448;-80
2022/01/15 02:40:47;;;;;;;67.78;27.48;;;-3.40;99.90;;;;;;4960864;28;20019;-80
2022/01/15 02:43:19;;;;;;;74.22;29.70;;;-3.30;99.90;;;;;;4958681;28;20086;-78
2022/01/15 02:45:55;;;;;;;71.00;28.08;;;-3.30;99.90;;;;;;4960751;29;20028;-80
2022/01/15 02:48:21;;;;;;;;;;;-3.20;99.90;;;;;;4960158;28;20106;-80
2022/01/15 02:50:47;;;;;;;74.35;29.27;;;-3.10;99.90;;;;;;4977502;28;19913;-79
2022/01/15 02:53:16;;;;;;;72.90;27.42;;;-3.00;99.90;;;;;;4970960;29;20099;-80
2022/01/15 02:55:48;;;;;;;65.63;27.98;;;-3.00;99.90;;;;;;4972990;29;20408;-79
2022/01/15 02:58:15;;;;;;;63.85;26.98;;;-3.00;99.90;;;;;;4961077;29;20400;-80
2022/01/15 03:00:41;;;;;;;71.68;29.63;;;-3.10;99.90;;;;;;4942774;29;20050;-80
2022/01/15 03:03:07;;;;;;;42.13;18.20;;;-3.10;99.90;;;;;;4959473;29;20082;-80
2022/01/15 03:05:33;;;;;;;43.90;17.67;;;-3.20;99.90;;;;;;4941523;29;20384;-79
2022/01/15 03:07:59;;;;;;;43.72;18.90;;;-3.30;99.90;;;;;;4956871;29;20034;-79
2022/01/15 03:10:24;;;;;;;;;;;-3.30;99.90;;;;;;4963904;29;20038;-78
2022/01/15 03:12:53;;;;;;;45.15;19.30;;;-3.40;99.90;;;;;;4953705;28;19907;-79
2022/01/15 03:15:19;;;;;;;57.08;24.45;;;-3.50;99.90;;;;;;4936996;29;20031;-80
2022/01/15 03:17:46;;;;;;;62.95;25.80;;;-3.60;99.90;;;;;;4941756;29;20031;-79
2022/01/15 03:20:14;;;;;;;65.32;28.00;;;-3.60;99.90;;;;;;4959408;29;20492;-79
2022/01/15 03:22:40;;;;;;;54.22;24.63;;;-3.30;99.90;;;;;;4938708;29;20031;-78
2022/01/15 03:25:06;;;;;;;53.75;25.60;;;-3.20;99.90;;;;;;4954808;29;20082;-78
2022/01/15 03:27:32;;;;;;;58.63;26.08;;;-3.30;99.90;;;;;;4952348;29;20027;-78
2022/01/15 03:29:58;;;;;;;58.72;24.42;;;-3.20;99.90;;;;;;4954019;28;20042;-79
2022/01/15 03:32:23;;;;;;;;;;;-3.20;99.90;;;;;;4936057;29;20049;-78
2022/01/15 03:34:49;;;;;;;56.17;22.20;;;-3.20;99.90;;;;;;4952945;28;20001;-79
2022/01/15 03:37:16;;;;;;;50.08;23.40;;;-3.20;99.90;;;;;;4956221;29;20050;-79
2022/01/15 03:39:42;;;;;;;52.00;24.52;;;-3.20;99.90;;;;;;4955909;28;20168;-80
2022/01/15 03:42:11;;;;;;;52.20;23.33;;;-3.20;99.90;;;;;;4954722;29;20038;-80
2022/01/15 03:44:44;;;;;;;49.20;22.73;;;-3.20;99.90;;;;;;4960169;29;20067;-79
2022/01/15 03:47:10;;;;;;;51.50;22.42;;;-3.20;99.90;;;;;;4955233;28;20024;-79
2022/01/15 03:49:37;;;;;;;46.50;22.10;;;-3.20;99.90;;;;;;4955396;29;20035;-79
2022/01/15 03:52:05;;;;;;;46.10;22.25;;;-3.10;99.90;;;;;;4954608;28;20059;-79
2022/01/15 03:54:31;;;;;;;45.35;22.85;;;-3.20;99.90;;;;;;4955212;29;20503;-79
2022/01/15 03:56:56;;;;;;;44.08;21.25;;;-3.20;99.90;;;;;;4954165;28;20075;-79
2022/01/15 03:59:22;;;;;;;;;;;-3.30;99.90;;;;;;4956314;29;20026;-79
2022/01/15 04:01:49;;;;;;;51.42;23.02;;;-3.40;99.90;;;;;;4971186;28;19938;-80
2022/01/15 04:04:15;;;;;;;56.15;23.40;;;-3.50;99.90;;;;;;4938570;29;20050;-79
2022/01/15 04:06:41;;;;;;;55.78;25.60;;;-3.60;99.90;;;;;;4956085;28;20027;-80
2022/01/15 04:09:08;;;;;;;66.10;26.73;;;-3.50;99.90;;;;;;4955946;29;20540;-79
2022/01/15 04:11:34;;;;;;;63.40;27.60;;;-3.60;99.90;;;;;;4959089;28;20027;-80
2022/01/15 04:14:00;;;;;;;57.25;27.60;;;-3.60;99.90;;;;;;4967188;29;20031;-79
2022/01/15 04:16:28;;;;;;;61.03;24.17;;;-3.60;99.90;;;;;;4954266;29;20046;-79
2022/01/15 04:18:54;;;;;;;56.22;27.23;;;-3.70;99.90;;;;;;4936888;29;20098;-79
2022/01/15 04:21:19;;;;;;;51.00;24.17;;;-3.70;99.90;;;;;;4955601;29;20443;-79
2022/01/15 04:23:45;;;;;;;;;;;-3.80;99.90;;;;;;4936205;29;20031;-78
2022/01/15 04:26:10;;;;;;;55.63;24.30;;;-3.90;99.90;;;;;;4953099;29;20294;-78
2022/01/15 04:28:36;;;;;;;51.75;22.17;;;-4.00;99.90;;;;;;4951361;29;20052;-78
2022/01/15 04:31:05;;;;;;;;;;;-4.20;99.90;;;;;;4952676;29;20126;-79
2022/01/15 04:33:35;;;;;;;58.28;24.90;;;-4.30;99.90;;;;;;4972883;28;19906;-81
2022/01/15 04:36:03;;;;;;;54.90;24.02;;;-4.50;99.90;;;;;;4954566;29;20127;-80
2022/01/15 04:38:30;;;;;;;54.92;24.30;;;-4.60;99.90;;;;;;4972664;29;20027;-81
2022/01/15 04:40:56;;;;;;;53.30;24.17;;;-4.70;99.90;;;;;;4972407;29;20039;-81
2022/01/15 04:43:22;;;;;;;50.95;23.10;;;-4.70;99.90;;;;;;4971471;29;20027;-80
2022/01/15 04:45:48;;;;;;;;;;;-4.80;99.90;;;;;;4970908;29;20611;-80
2022/01/15 04:48:13;;;;;;;49.20;20.30;;;-4.90;99.90;;;;;;4971700;29;19906;-81
2022/01/15 04:50:39;;;;;;;56.08;23.85;;;-5.00;99.90;;;;;;4971703;29;20028;-80
2022/01/15 04:53:05;;;;;;;60.50;24.27;;;-5.00;99.90;;;;;;4959921;29;20037;-79
2022/01/15 04:55:31;;;;;;;70.10;27.27;;;-5.00;99.90;;;;;;4951321;29;20226;-80
2022/01/15 04:57:57;;;;;;;65.30;26.92;;;-5.10;99.90;;;;;;4951875;29;20058;-78
2022/01/15 05:00:23;;;;;;;61.63;27.33;;;-5.10;99.90;;;;;;4952601;28;20451;-79
2022/01/15 05:02:49;;;;;;;56.58;25.02;;;-5.10;99.90;;;;;;4951690;29;20443;-78
2022/01/15 05:05:14;;;;;;;52.88;22.30;;;-5.10;99.90;;;;;;4934718;29;20496;-79
2022/01/15 05:07:41;;;;;;;49.38;21.75;;;-5.20;99.90;;;;;;4970682;28;20031;-80
2022/01/15 05:10:09;;;;;;;53.55;23.38;;;-5.20;99.90;;;;;;4954602;28;20062;-79
2022/01/15 05:12:46;;;;;;;43.50;19.98;;;-5.20;99.90;;;;;;4965632;29;20027;-78
2022/01/15 05:15:13;;;;;;;67.43;29.70;;;-5.20;99.90;;;;;;4958689;29;20027;-79
2022/01/15 05:17:39;;;;;;;58.28;25.88;;;-5.30;99.90;;;;;;4955520;29;20039;-80
2022/01/15 05:20:06;;;;;;;55.38;23.20;;;-5.40;99.90;;;;;;4960209;28;20027;-79
2022/01/15 05:22:34;;;;;;;58.05;23.65;;;-5.50;99.90;;;;;;4957598;29;20034;-80
2022/01/15 05:24:59;;;;;;;55.83;24.30;;;-5.50;99.90;;;;;;4951806;29;20403;-79
2022/01/15 05:27:25;;;;;;;58.55;24.48;;;-5.60;99.90;;;;;;4952007;29;20035;-79
2022/01/15 05:29:51;;;;;;;62.45;26.95;;;-5.60;99.90;;;;;;4952185;29;20023;-79
2022/01/15 05:32:23;;;;;;;55.33;25.40;;;-5.70;99.90;;;;;;4954443;29;20031;-79
2022/01/15 05:34:49;;;;;;;69.13;30.27;;;-5.70;99.90;;;;;;4954394;29;20126;-79
2022/01/15 05:37:15;;;;;;;62.15;28.30;;;-5.80;99.90;;;;;;4951969;29;20035;-80
2022/01/15 05:39:41;;;;;;;59.35;25.58;;;-5.80;99.90;;;;;;4965595;28;20062;-80
2022/01/15 05:42:07;;;;;;;51.55;22.63;;;-5.80;99.90;;;;;;4953744;28;20097;-79
2022/01/15 05:44:34;;;;;;;48.25;20.75;;;-5.80;99.90;;;;;;4950934;29;20369;-79
2022/01/15 05:47:00;;;;;;;45.63;19.85;;;-5.90;99.90;;;;;;4956255;29;20028;-79
2022/01/15 05:49:25;;;;;;;45.92;19.02;;;-5.90;99.90;;;;;;4962850;29;20114;-79
2022/01/15 05:51:51;;;;;;;50.97;24.80;;;-6.00;99.90;;;;;;4955086;29;20033;-80
2022/01/15 05:54:17;;;;;;;92.68;26.55;;;-6.00;99.90;;;;;;4953719;29;20059;-78
2022/01/15 05:56:43;;;;;;;104.15;25.23;;;-6.00;99.90;;;;;;4952178;29;20086;-79
2022/01/15 05:59:09;;;;;;;177.60;29.20;;;-6.00;99.90;;;;;;4951956;29;20027;-79
2022/01/15 06:01:36;;;;;;;526.45;47.10;;;-6.00;99.90;;;;;;4955657;29;20058;-79
2022/01/15 06:04:02;;;;;;;297.98;35.70;;;-5.90;99.90;;;;;;4949900;28;20056;-80
2022/01/15 06:06:27;;;;;;;330.38;36.35;;;-5.90;99.90;;;;;;4953529;29;20082;-80
2022/01/15 06:08:53;;;;;;;209.57;33.25;;;-5.80;99.90;;;;;;4936042;29;20035;-79
2022/01/15 06:11:19;;;;;;;160.02;31.58;;;-5.80;99.90;;;;;;4955603;28;20110;-78
2022/01/15 06:13:46;;;;;;;82.57;30.05;;;-5.70;99.90;;;;;;4958673;28;20235;-79
2022/01/15 06:16:11;;;;;;;359.35;43.38;;;-5.80;99.90;;;;;;4962046;29;20035;-79
2022/01/15 06:18:37;;;;;;;164.43;35.58;;;-5.80;99.90;;;;;;4959613;29;20401;-79
2022/01/15 06:21:03;;;;;;;96.53;34.28;;;-5.80;99.90;;;;;;4944203;29;20024;-80
2022/01/15 06:23:29;;;;;;;90.43;36.38;;;-5.80;99.90;;;;;;4961550;28;20913;-77
2022/01/15 06:25:55;;;;;;;151.48;43.28;;;-5.80;99.90;;;;;;4935436;29;20122;-76
2022/01/15 06:28:21;;;;;;;110.88;37.25;;;-5.80;99.90;;;;;;4959217;29;20024;-79
2022/01/15 06:30:47;;;;;;;110.28;39.40;;;-5.80;99.90;;;;;;4951536;29;20032;-80
2022/01/15 06:33:13;;;;;;;97.85;35.95;;;-5.90;99.90;;;;;;4973399;28;20023;-81
2022/01/15 06:35:39;;;;;;;91.05;33.53;;;-5.90;99.90;;;;;;4971327;29;20024;-80
2022/01/15 06:38:05;;;;;;;97.40;36.35;;;-5.90;99.90;;;;;;4970094;29;20086;-80
2022/01/15 06:40:31;;;;;;;83.70;32.00;;;-6.00;99.90;;;;;;4964460;29;20481;-81
2022/01/15 06:43:00;;;;;;;96.22;38.72;;;-6.00;99.90;;;;;;4974274;28;20067;-80
2022/01/15 06:45:27;;;;;;;97.38;36.63;;;-6.00;99.90;;;;;;4974085;28;20067;-79
2022/01/15 06:47:53;;;;;;;97.63;39.67;;;-5.90;99.90;;;;;;4964826;29;20020;-80
2022/01/15 06:50:24;;;;;;;99.90;40.63;;;-5.90;99.90;;;;;;4949577;29;20027;-80
2022/01/15 06:52:50;;;;;;;118.63;46.95;;;-5.90;99.90;;;;;;4964801;29;20123;-80
2022/01/15 06:55:16;;;;;;;97.88;39.33;;;-5.80;99.90;;;;;;4964345;29;20799;-80
2022/01/15 06:57:42;;;;;;;90.95;36.97;;;-5.80;99.90;;;;;;4968567;29;20076;-80
2022/01/15 07:00:10;;;;;;;93.28;39.33;;;-5.80;99.90;;;;;;4968949;29;20027;-82
2022/01/15 07:02:36;;;;;;;113.93;47.58;;;-5.80;99.90;;;;;;4971716;29;20046;-80
2022/01/15 07:05:02;;;;;;;113.15;48.33;;;-5.70;99.90;;;;;;4953193;29;20067;-80
2022/01/15 07:07:28;;;;;;;120.47;52.03;;;-5.70;99.90;;;;;;4957856;29;20035;-80
2022/01/15 07:09:53;;;;;;;137.82;59.85;;;-5.60;99.90;;;;;;4972734;29;20037;-80
2022/01/15 07:12:19;;;;;;;138.95;59.28;;;-5.50;99.90;;;;;;4970838;29;20099;-79
2022/01/15 07:14:44;;;;;;;121.25;51.45;;;-5.40;99.90;;;;;;4972945;29;20031;-80
2022/01/15 07:17:10;;;;;;;113.13;46.13;;;-5.00;99.90;;;;;;4974141;29;20035;-80
2022/01/15 07:19:36;;;;;;;;;;;-4.70;99.90;;;;;;4950323;29;20038;-80
2022/01/15 07:22:03;;;;;;;94.85;42.00;;;-4.20;99.90;;;;;;4982849;28;19914;-80
2022/01/15 07:24:28;;;;;;;93.97;40.78;;;-3.80;99.90;;;;;;4970006;29;20058;-80
2022/01/15 07:26:54;;;;;;;93.22;41.30;;;-3.50;99.90;;;;;;4971983;29;20031;-81
2022/01/15 07:29:20;;;;;;;96.75;46.05;;;-3.10;99.90;;;;;;4975437;28;20051;-81
2022/01/15 07:31:46;;;;;;;;;;;-2.70;99.90;;;;;;4974486;29;20091;-80
2022/01/15 07:34:14;;;;;;;103.00;47.13;;;-2.40;99.90;;;;;;4973311;29;19907;-80
2022/01/15 07:36:51;;;;;;;108.22;50.75;;;-2.20;99.90;;;;;;4970115;29;20039;-80
2022/01/15 07:39:17;;;;;;;128.00;55.00;;;-2.10;99.90;;;;;;4969952;29;20031;-82
2022/01/15 07:41:42;;;;;;;;;;;-1.90;99.90;;;;;;4975563;29;20015;-81
2022/01/15 07:44:09;;;;;;;138.00;63.20;;;-1.70;99.90;;;;;;4956616;29;19906;-83
2022/01/15 07:46:38;;;;;;;94.95;43.42;;;-1.60;99.90;;;;;;4970682;29;20432;-81
2022/01/15 07:49:04;;;;;;;75.45;36.05;;;-1.60;99.90;;;;;;4957110;29;20015;-81
2022/01/15 07:51:30;;;;;;;;;;;-1.40;99.90;;;;;;4951789;29;20023;-81
2022/01/15 07:53:56;;;;;;;84.70;35.90;;;-1.20;99.90;;;;;;4985457;28;19910;-81
2022/01/15 07:56:22;;;;;;;;;;;-1.20;99.90;;;;;;4965826;29;20031;-81
2022/01/15 07:58:48;;;;;;;63.33;30.08;;;-1.30;99.90;;;;;;4988401;28;19939;-81
2022/01/15 08:01:14;;;;;;;59.10;27.83;;;-1.40;99.90;;;;;;4973164;29;20031;-83
2022/01/15 08:03:40;;;;;;;79.68;38.65;;;-1.20;99.90;;;;;;4968766;29;20034;-81
2022/01/15 08:06:08;;;;;;;64.40;30.85;;;-1.00;99.90;;;;;;4968966;29;20035;-80
2022/01/15 08:08:34;;;;;;;48.22;24.90;;;-0.70;99.90;;;;;;4963271;29;20018;-80
2022/01/15 08:11:00;;;;;;;;;;;-0.40;99.90;;;;;;4964557;28;20122;-82
2022/01/15 08:13:26;;;;;;;92.35;44.50;;;0.00;99.90;;;;;;4965214;28;19910;-79
2022/01/15 08:15:53;;;;;;;115.18;59.33;;;0.40;99.90;;;;;;4969013;29;20019;-78
2022/01/15 08:18:21;;;;;;;133.07;67.03;;;0.90;99.90;;;;;;4962831;29;20062;-79
2022/01/15 08:20:48;;;;;;;99.18;51.78;;;1.20;99.90;;;;;;4969918;28;20054;-80
2022/01/15 08:23:14;;;;;;;86.28;46.42;;;1.50;99.90;;;;;;4969607;29;20031;-80
2022/01/15 08:25:39;;;;;;;;;;;1.80;99.90;;;;;;4959139;29;20481;-80
2022/01/15 08:28:05;;;;;;;104.20;55.22;;;2.00;99.90;;;;;;4977316;28;19906;-80
2022/01/15 08:30:31;;;;;;;49.80;25.10;;;2.40;99.90;;;;;;4963561;29;20027;-79
2022/01/15 08:32:57;;;;;;;;;;;2.80;99.90;;;;;;4952523;28;20456;-81
2022/01/15 08:35:22;;;;;;;70.95;44.22;;;3.40;99.90;;;;;;4978200;28;19918;-81
2022/01/15 08:37:48;;;;;;;;;;;3.70;99.90;;;;;;4960593;28;20044;-80
2022/01/15 08:40:17;;;;;;;60.38;36.25;;;4.30;99.90;;;;;;4975536;28;19917;-80
2022/01/15 08:42:43;;;;;;;44.58;25.25;;;4.60;99.90;;;;;;4974138;29;20031;-80
2022/01/15 08:45:09;;;;;;;;;;;5.00;99.90;;;;;;4973592;29;20026;-78
2022/01/15 08:47:36;;;;;;;31.80;19.40;;;5.20;99.90;;;;;;4974192;29;19914;-79
2022/01/15 08:50:04;;;;;;;22.35;12.48;;;5.30;99.90;;;;;;4975245;29;20037;-77
2022/01/15 08:52:29;;;;;;;37.17;23.27;;;5.70;99.90;;;;;;4973805;29;20042;-77
2022/01/15 08:54:55;;;;;;;;;;;6.10;99.90;;;;;;4955650;28;20023;-79
2022/01/15 08:57:21;;;;;;;53.45;36.17;;;6.30;99.90;;;;;;4950005;29;19919;-89
2022/01/15 08:59:46;;;;;;;;;;;6.40;99.90;;;;;;4949150;28;20178;-81
2022/01/15 09:02:12;;;;;;;39.78;25.92;;;6.30;99.90;;;;;;4949713;28;20013;-83
2022/01/15 09:04:38;;;;;;;;;;;6.10;99.90;;;;;;4933243;29;20047;-82
2022/01/15 09:07:04;;;;;;;26.83;16.55;;;5.80;99.80;;;;;;4951293;28;19958;-78
2022/01/15 09:09:29;;;;;;;;;;;5.60;99.90;;;;;;4961431;28;20031;-79
2022/01/15 09:11:55;;;;;;;24.30;13.18;;;5.50;99.90;;;;;;4961827;29;19985;-78
2022/01/15 09:14:20;;;;;;;;;;;5.30;99.90;;;;;;4961631;29;20059;-79
2022/01/15 09:16:46;;;;;;;26.42;13.93;;;5.20;99.90;;;;;;4941471;29;19910;-79
2022/01/15 09:19:12;;;;;;;57.78;35.53;;;5.10;99.90;;;;;;4960432;29;20046;-79
2022/01/15 09:21:38;;;;;;;;;;;5.00;99.90;;;;;;4958638;28;20086;-78
2022/01/15 09:24:04;;;;;;;91.53;44.65;;;4.90;99.90;;;;;;4939448;28;20402;-78
2022/01/15 09:27:00;;;;;;;;;;;4.90;99.90;;;;;;4959998;29;20182;-78
2022/01/15 09:32:10;;;;;;;73.57;36.50;;;4.80;99.90;;;;;;4963832;29;20034;-80
2022/01/15 09:34:36;;;;;;;;;;;4.80;99.90;;;;;;4951190;29;20040;-81
2022/01/15 09:37:03;;;;;;;34.08;18.90;;;4.60;99.90;;;;;;4984778;28;19910;-80
2022/01/15 09:39:30;;;;;;;33.28;17.42;;;4.50;99.90;;;;;;4969882;29;20019;-81
2022/01/15 09:41:56;;;;;;;33.97;17.13;;;4.40;99.90;;;;;;4958496;28;20047;-81
2022/01/15 09:44:22;;;;;;;;;;;4.20;99.90;;;;;;4965298;29;20030;-79
2022/01/15 09:46:49;;;;;;;29.70;16.57;;;4.10;99.90;;;;;;4941226;29;19955;-79
2022/01/15 09:49:17;;;;;;;40.80;22.05;;;4.10;99.90;;;;;;4966831;29;20254;-79
2022/01/15 09:51:43;;;;;;;39.42;20.02;;;4.10;99.90;;;;;;4948144;29;20102;-80
2022/01/15 09:54:09;;;;;;;33.53;18.13;;;4.10;99.90;;;;;;4940918;29;20108;-79
2022/01/15 09:56:34;;;;;;;;;;;4.10;99.90;;;;;;4956606;28;20051;-79
2022/01/15 09:59:02;;;;;;;38.72;21.02;;;4.20;99.90;;;;;;4972110;28;19910;-79
2022/01/15 10:01:32;;;;;;;38.35;19.80;;;4.20;99.90;;;;;;4956800;28;20083;-77
2022/01/15 10:03:59;;;;;;;37.45;18.90;;;4.30;99.90;;;;;;4955680;28;20127;-78
2022/01/15 10:06:25;;;;;;;34.10;19.83;;;4.20;99.90;;;;;;4949814;29;20069;-78
2022/01/15 10:09:03;;;;;;;36.03;20.33;;;4.20;99.90;;;;;;4960705;28;20840;-83
2022/01/15 10:11:40;;;;;;;41.78;23.10;;;4.30;99.90;;;;;;4981400;28;20029;-83
2022/01/15 10:14:25;;;;;;;42.45;22.08;;;4.30;99.90;;;;;;4980842;29;20015;-83
2022/01/15 10:16:51;;;;;;;43.10;22.67;;;4.20;99.90;;;;;;4981025;29;20027;-83
2022/01/15 10:19:24;;;;;;;;;;;4.20;99.90;;;;;;4964463;29;20087;-81
2022/01/15 10:22:23;;;;;;;50.45;25.40;;;4.20;99.90;;;;;;4980902;29;19898;-81
2022/01/15 10:24:56;;;;;;;60.42;32.88;;;4.20;99.90;;;;;;4929357;29;20094;-82
2022/01/15 10:27:24;;;;;;;66.82;34.40;;;4.30;99.90;;;;;;4962871;29;20066;-81
2022/01/15 10:29:58;;;;;;;70.05;36.10;;;4.20;99.90;;;;;;4978516;29;20024;-79
2022/01/15 10:32:26;;;;;;;78.13;44.00;;;4.30;99.90;;;;;;4978608;29;20283;-82
2022/01/15 10:34:52;;;;;;;72.88;40.55;;;4.30;99.90;;;;;;4977520;29;20523;-82
2022/01/15 10:37:21;;;;;;;75.40;40.58;;;4.30;99.90;;;;;;4961646;29;20027;-82
2022/01/15 10:40:08;;;;;;;63.00;36.25;;;4.20;99.90;;;;;;4978230;29;20027;-82
2022/01/15 10:42:35;;;;;;;75.95;42.00;;;4.30;99.90;;;;;;4978084;29;20007;-81
2022/01/15 10:45:16;;;;;;;72.88;38.97;;;4.20;99.90;;;;;;4976119;29;20051;-81
2022/01/15 10:47:47;;;;;;;74.72;41.50;;;4.20;99.90;;;;;;4975567;29;20039;-80
2022/01/15 10:50:21;;;;;;;134.77;77.40;;;4.20;99.90;;;;;;4979400;29;20055;-82
2022/01/15 10:52:47;;;;;;;237.60;141.32;;;4.30;99.90;;;;;;4978734;28;20055;-81
2022/01/15 10:55:15;;;;;;;;;;;4.30;99.90;;;;;;4978166;29;20051;-81
2022/01/15 10:58:00;;;;;;;76.90;41.03;;;4.30;99.90;;;;;;4979813;28;19897;-81
2022/01/15 11:00:40;;;;;;;67.13;34.20;;;4.30;99.90;;;;;;4980429;29;20038;-81
2022/01/15 11:03:12;;;;;;;72.53;34.67;;;4.30;99.90;;;;;;4980507;28;20051;-82
2022/01/15 11:05:39;;;;;;;51.53;28.27;;;4.40;99.90;;;;;;4980561;28;20058;-82
2022/01/15 11:08:15;;;;;;;53.10;29.98;;;4.40;99.90;;;;;;4963391;28;20257;-81
2022/01/15 11:10:42;;;;;;;57.95;31.88;;;4.40;99.90;;;;;;4964165;29;20031;-82
2022/01/15 11:13:11;;;;;;;66.32;35.17;;;4.50;99.90;;;;;;4981177;29;20035;-82
2022/01/15 11:15:42;;;;;;;47.83;24.60;;;4.50;99.90;;;;;;4982417;28;20026;-83
2022/01/15 11:18:14;;;;;;;44.03;24.33;;;4.60;99.90;;;;;;4980648;29;20051;-81
2022/01/15 11:20:45;;;;;;;40.03;20.58;;;4.60;99.90;;;;;;4979322;28;20003;-81
2022/01/15 11:23:11;;;;;;;66.40;39.42;;;4.70;99.90;;;;;;4982232;28;20019;-82
2022/01/15 11:25:38;;;;;;;44.25;27.45;;;4.70;99.90;;;;;;4980081;29;20035;-82
2022/01/15 11:28:07;;;;;;;35.63;18.02;;;4.80;99.90;;;;;;4980387;29;20027;-81
2022/01/15 11:30:34;;;;;;;41.00;22.80;;;4.80;99.90;;;;;;4980639;28;20027;-81
2022/01/15 11:33:00;;;;;;;46.78;23.73;;;4.80;99.90;;;;;;4977940;28;20031;-84
2022/01/15 11:35:46;;;;;;;40.22;20.70;;;4.90;99.90;;;;;;4980496;28;20107;-83
2022/01/15 11:38:50;;;;;;;42.07;19.03;;;4.90;99.90;;;;;;4981278;28;20035;-81
2022/01/15 11:41:28;;;;;;;28.50;14.10;;;5.00;99.90;;;;;;4980555;28;20055;-83
2022/01/15 11:44:18;;;;;;;28.08;13.20;;;5.00;99.90;;;;;;4964873;28;20038;-81
2022/01/15 11:46:53;;;;;;;26.83;12.32;;;5.10;99.90;;;;;;4956382;28;20055;-82
2022/01/15 11:49:47;;;;;;;28.67;17.67;;;5.10;99.90;;;;;;4980886;28;20018;-83
2022/01/15 11:52:14;;;;;;;32.75;18.85;;;5.10;99.90;;;;;;4980799;28;20018;-82
2022/01/15 11:55:05;;;;;;;32.33;15.63;;;5.10;99.90;;;;;;4981306;28;20015;-81
2022/01/15 11:57:33;;;;;;;82.65;48.63;;;5.20;99.90;;;;;;4981303;28;20011;-80
2022/01/15 12:00:03;;;;;;;57.63;31.20;;;5.20;99.90;;;;;;4964891;28;20035;-83
2022/01/15 12:02:52;;;;;;;47.22;23.40;;;5.20;99.90;;;;;;4980776;28;20036;-82
2022/01/15 12:05:21;;;;;;;38.92;18.63;;;5.20;99.90;;;;;;4957005;28;20059;-83
2022/01/15 12:08:00;;;;;;;53.50;31.73;;;5.30;98.30;;;;;;4964378;28;20058;-83
2022/01/15 12:10:47;;;;;;;55.15;30.70;;;5.40;98.40;;;;;;4980861;28;20047;-81
2022/01/15 12:13:23;;;;;;;62.50;39.42;;;5.40;97.80;;;;;;4980765;28;20022;-82
2022/01/15 12:16:09;;;;;;;58.28;36.67;;;5.50;96.70;;;;;;4981212;28;20051;-83
2022/01/15 12:28:56;;;;;;;38.35;19.90;;;5.60;95.80;;;;;;5932847;23;20042;-83
2022/01/15 12:31:22;;;;;;;;;;;5.50;96.90;;;;;;4999792;28;20046;-82
2022/01/15 12:33:49;;;;;;;35.78;17.30;;;5.60;96.30;;;;;;4982543;28;19909;-83
2022/01/15 12:36:17;;;;;;;41.40;22.20;;;5.60;99.80;;;;;;4999074;28;19999;-82
2022/01/15 12:38:49;;;;;;;35.10;18.98;;;5.60;99.90;;;;;;4982041;28;20010;-82
2022/01/15 12:41:18;;;;;;;39.50;19.90;;;5.60;99.90;;;;;;4999292;28;20045;-82
2022/01/15 12:43:44;;;;;;;28.33;15.68;;;5.60;99.60;;;;;;5000656;28;20015;-83
2022/01/15 12:46:15;;;;;;;;;;;5.70;96.30;;;;;;5000891;28;20067;-82
2022/01/15 12:48:44;;;;;;;29.70;13.40;;;5.70;92.90;;;;;;4983759;28;19906;-83
2022/01/15 12:51:18;;;;;;;26.13;12.93;;;5.80;93.60;;;;;;5000387;28;20075;-83
2022/01/15 12:53:50;;;;;;;38.28;17.15;;;5.80;89.70;;;;;;4983839;28;20011;-82
2022/01/15 12:56:20;;;;;;;33.60;15.63;;;5.90;93.00;;;;;;4983610;28;20014;-82
2022/01/15 12:58:50;;;;;;;27.10;14.43;;;5.90;90.30;;;;;;5000328;28;20011;-82
2022/01/15 13:01:22;;;;;;;28.40;14.10;;;5.90;90.80;;;;;;5000353;28;20015;-83
2022/01/15 13:03:48;;;;;;;34.35;17.13;;;6.10;90.00;;;;;;5000398;28;20038;-83
2022/01/15 13:06:16;;;;;;;23.42;11.20;;;6.10;86.40;;;;;;4983818;28;20053;-84
2022/01/15 13:08:44;;;;;;;;;;;6.00;87.60;;;;;;4984061;28;20014;-83
2022/01/15 13:13:46;;;;;;;26.67;13.20;;;6.00;77.60;;;;;;5000364;28;20082;-83
2022/01/15 13:16:19;;;;;;;27.45;12.40;;;6.00;77.10;;;;;;4983511;28;20011;-83
2022/01/15 13:18:49;;;;;;;19.83;8.57;;;5.90;78.40;;;;;;5000146;28;20082;-82
2022/01/15 13:21:21;;;;;;;18.90;10.57;;;6.10;73.90;;;;;;4983212;28;20037;-82